createdAt,value
2023-01-08T00:00:07.060Z,3.70
2023-01-08T00:02:41.277Z,3.58
2023-01-08T00:05:08.251Z,3.05
2023-01-08T00:07:34.727Z,3.20
2023-01-08T00:10:01.175Z,3.63
2023-01-08T00:12:27.604Z,3.50
2023-01-08T00:14:54.085Z,3.50
2023-01-08T00:17:20.531Z,3.25
2023-01-08T00:19:46.987Z,3.60
2023-01-08T00:22:13.468Z,3.38
2023-01-08T00:24:40.086Z,3.58
2023-01-08T00:27:06.800Z,3.92
2023-01-08T00:29:33.244Z,3.40
2023-01-08T00:31:59.751Z,3.40
2023-01-08T00:34:26.235Z,4.18
2023-01-08T00:36:52.738Z,3.83
2023-01-08T00:39:19.181Z,3.70
2023-01-08T00:41:45.854Z,3.42
2023-01-08T00:44:12.291Z,3.67
2023-01-08T00:46:38.753Z,3.35
2023-01-08T00:49:05.189Z,3.97
2023-01-08T00:51:31.704Z,3.88
2023-01-08T00:53:58.182Z,3.50
2023-01-08T00:56:24.612Z,3.92
2023-01-08T00:58:51.081Z,3.58
2023-01-08T01:01:17.781Z,3.70
2023-01-08T01:03:44.993Z,4.00
2023-01-08T01:06:13.521Z,3.25
2023-01-08T01:08:40.821Z,3.50
2023-01-08T01:11:33.759Z,3.63
2023-01-08T01:14:00.227Z,3.80
2023-01-08T01:16:26.989Z,3.60
2023-01-08T01:18:54.877Z,3.50
2023-01-08T01:21:30.453Z,3.60
2023-01-08T01:23:59.727Z,3.60
2023-01-08T01:26:27.112Z,3.30
2023-01-08T01:28:55.610Z,3.47
2023-01-08T01:31:22.760Z,3.80
2023-01-08T01:33:50.529Z,4.00
2023-01-08T01:36:18.897Z,3.85
2023-01-08T01:38:47.331Z,4.00
2023-01-08T01:41:24.625Z,3.70
2023-01-08T01:43:51.259Z,3.90
2023-01-08T01:46:21.267Z,3.63
2023-01-08T01:48:51.339Z,3.47
2023-01-08T01:51:19.645Z,3.70
2023-01-08T01:53:46.098Z,4.03
2023-01-08T01:56:12.510Z,3.45
2023-01-08T01:58:38.920Z,4.63
2023-01-08T02:01:08.213Z,3.50
2023-01-08T02:03:37.588Z,3.70
2023-01-08T02:06:45.587Z,3.97
2023-01-08T02:09:43.308Z,3.85
2023-01-08T02:12:25.993Z,3.90
2023-01-08T02:14:55.469Z,3.55
2023-01-08T02:17:37.886Z,3.95
2023-01-08T02:20:23.102Z,3.70
2023-01-08T02:23:30.252Z,3.50
2023-01-08T02:26:07.040Z,3.50
2023-01-08T02:28:59.754Z,3.80
2023-01-08T02:31:29.232Z,3.72
2023-01-08T02:33:55.994Z,3.65
2023-01-08T02:36:38.421Z,3.78
2023-01-08T02:39:30.378Z,3.47
2023-01-08T02:42:21.843Z,4.32
2023-01-08T02:44:52.409Z,3.45
2023-01-08T02:47:32.390Z,3.67
2023-01-08T02:50:10.656Z,3.45
2023-01-08T02:52:48.640Z,3.63
2023-01-08T02:55:16.341Z,3.42
2023-01-08T02:57:42.817Z,3.70
2023-01-08T03:00:10.246Z,3.70
2023-01-08T03:02:39.865Z,3.40
2023-01-08T03:05:15.668Z,3.30
2023-01-08T03:07:42.537Z,3.42
2023-01-08T03:10:10.541Z,3.45
2023-01-08T03:12:45.907Z,3.35
2023-01-08T03:15:17.101Z,3.65
2023-01-08T03:17:48.337Z,3.30
2023-01-08T03:20:17.094Z,4.28
2023-01-08T03:22:47.313Z,3.38
2023-01-08T03:25:16.039Z,3.42
2023-01-08T03:27:48.150Z,3.47
2023-01-08T03:30:18.121Z,3.65
2023-01-08T03:32:47.343Z,3.80
2023-01-08T03:35:19.350Z,3.78
2023-01-08T03:37:49.536Z,3.53
2023-01-08T03:40:27.266Z,3.40
2023-01-08T03:42:54.566Z,3.85
2023-01-08T03:45:22.633Z,3.40
2023-01-08T03:47:50.392Z,3.53
2023-01-08T03:50:22.361Z,3.35
2023-01-08T03:52:48.813Z,3.28
2023-01-08T03:55:15.293Z,3.80
2023-01-08T03:57:41.740Z,3.80
2023-01-08T04:00:08.701Z,3.78
2023-01-08T04:02:35.211Z,3.95
2023-01-08T04:05:01.920Z,4.00
2023-01-08T04:07:28.402Z,3.30
2023-01-08T04:09:54.822Z,3.35
2023-01-08T04:12:21.234Z,3.65
2023-01-08T04:14:47.667Z,3.10
2023-01-08T04:17:14.237Z,3.25
2023-01-08T04:19:40.888Z,3.67
2023-01-08T04:22:10.548Z,3.80
2023-01-08T04:24:37.036Z,3.60
2023-01-08T04:27:03.614Z,3.38
2023-01-08T04:29:30.011Z,3.65
2023-01-08T04:31:56.769Z,3.33
2023-01-08T04:34:23.185Z,3.63
2023-01-08T04:36:49.584Z,3.85
2023-01-08T04:39:16.132Z,3.78
2023-01-08T04:41:42.668Z,3.47
2023-01-08T04:44:09.648Z,3.72
2023-01-08T04:46:36.426Z,4.13
2023-01-08T04:49:03.419Z,3.83
2023-01-08T04:51:29.821Z,3.90
2023-01-08T04:53:56.279Z,3.63
2023-01-08T04:56:22.728Z,4.20
2023-01-08T04:58:49.142Z,3.80
2023-01-08T05:01:23.998Z,3.85
2023-01-08T05:03:55.307Z,3.80
2023-01-08T05:06:22.012Z,3.92
2023-01-08T05:08:48.493Z,3.90
2023-01-08T05:11:14.950Z,3.67
2023-01-08T05:13:41.397Z,4.00
2023-01-08T05:16:08.116Z,3.90
2023-01-08T05:18:34.601Z,3.50
2023-01-08T05:21:02.772Z,3.95
2023-01-08T05:23:30.282Z,4.00
2023-01-08T05:26:01.401Z,3.97
2023-01-08T05:28:28.570Z,3.97
2023-01-08T05:30:55.425Z,4.10
2023-01-08T05:33:22.579Z,3.50
2023-01-08T05:35:49.286Z,3.63
2023-01-08T05:38:16.022Z,3.70
2023-01-08T05:40:42.455Z,3.30
2023-01-08T05:43:08.976Z,4.07
2023-01-08T05:45:35.570Z,3.80
2023-01-08T05:48:06.078Z,3.45
2023-01-08T05:50:32.892Z,4.03
2023-01-08T05:52:59.542Z,4.10
2023-01-08T05:55:25.942Z,4.25
2023-01-08T05:57:52.430Z,4.03
2023-01-08T06:00:18.836Z,3.60
2023-01-08T06:02:48.511Z,3.72
2023-01-08T06:05:15.166Z,4.18
2023-01-08T06:07:41.621Z,3.60
2023-01-08T06:10:08.416Z,3.92
2023-01-08T06:12:34.998Z,3.95
2023-01-08T06:15:01.465Z,4.05
2023-01-08T06:17:28.057Z,4.43
2023-01-08T06:19:54.462Z,4.03
2023-01-08T06:22:20.928Z,3.75
2023-01-08T06:24:47.459Z,4.25
2023-01-08T06:27:13.906Z,3.90
2023-01-08T06:29:40.333Z,3.97
2023-01-08T06:32:06.763Z,4.28
2023-01-08T06:34:33.186Z,3.60
2023-01-08T06:36:59.616Z,3.67
2023-01-08T06:39:26.097Z,4.20
2023-01-08T06:41:52.514Z,4.10
2023-01-08T06:44:18.928Z,3.50
2023-01-08T06:46:45.455Z,4.00
2023-01-08T06:49:11.917Z,3.75
2023-01-08T06:51:38.663Z,4.07
2023-01-08T06:54:05.164Z,3.90
2023-01-08T06:56:32.223Z,4.05
2023-01-08T06:59:00.685Z,4.35
2023-01-08T07:01:27.291Z,3.97
2023-01-08T07:03:54.077Z,4.32
2023-01-08T07:06:21.922Z,4.63
2023-01-08T07:08:49.081Z,4.30
2023-01-08T07:11:16.241Z,4.20
2023-01-08T07:13:42.737Z,4.10
2023-01-08T07:16:11.259Z,4.28
2023-01-08T07:18:38.234Z,4.03
2023-01-08T07:21:06.489Z,4.30
2023-01-08T07:23:33.891Z,4.20
2023-01-08T07:26:05.149Z,4.30
2023-01-08T07:28:31.882Z,4.18
2023-01-08T07:30:58.396Z,4.30
2023-01-08T07:33:24.818Z,3.95
2023-01-08T07:35:55.555Z,3.83
2023-01-08T07:38:22.571Z,4.13
2023-01-08T07:40:49.393Z,3.72
2023-01-08T07:43:15.855Z,4.40
2023-01-08T07:45:42.283Z,4.35
2023-01-08T07:48:15.804Z,4.38
2023-01-08T07:50:45.258Z,3.92
2023-01-08T07:53:13.536Z,4.30
2023-01-08T07:55:40.044Z,4.32
2023-01-08T07:58:11.093Z,3.83
2023-01-08T08:00:37.869Z,3.97
2023-01-08T08:03:06.533Z,3.95
2023-01-08T08:05:33.661Z,4.20
2023-01-08T08:08:00.094Z,4.32
2023-01-08T08:10:26.698Z,4.20
2023-01-08T08:12:53.121Z,4.15
2023-01-08T08:15:19.538Z,4.43
2023-01-08T08:17:47.276Z,3.97
2023-01-08T08:20:14.526Z,4.18
2023-01-08T08:22:41.138Z,4.32
2023-01-08T08:25:08.113Z,3.83
2023-01-08T08:27:34.490Z,4.40
2023-01-08T08:30:01.040Z,4.38
2023-01-08T08:32:27.542Z,4.55
2023-01-08T08:34:54.000Z,4.82
2023-01-08T08:37:20.410Z,5.10
2023-01-08T08:39:47.070Z,4.47
2023-01-08T08:42:13.756Z,5.38
2023-01-08T08:44:42.670Z,4.65
2023-01-08T08:47:09.645Z,4.88
2023-01-08T08:49:36.516Z,4.72
2023-01-08T08:52:03.915Z,4.50
2023-01-08T08:54:30.459Z,5.15
2023-01-08T08:56:56.968Z,4.22
2023-01-08T08:59:23.494Z,4.78
2023-01-08T09:01:50.172Z,5.07
2023-01-08T09:04:16.675Z,5.30
2023-01-08T09:06:43.097Z,5.18
2023-01-08T09:09:09.638Z,4.85
2023-01-08T09:11:36.149Z,4.50
2023-01-08T09:14:04.284Z,4.32
2023-01-08T09:16:32.885Z,4.35
2023-01-08T09:18:59.337Z,4.35
2023-01-08T09:21:25.810Z,4.70
2023-01-08T09:23:52.270Z,4.70
2023-01-08T09:26:18.711Z,4.45
2023-01-08T09:28:45.140Z,4.35
2023-01-08T09:31:11.599Z,4.88
2023-01-08T09:33:38.086Z,4.28
2023-01-08T09:36:04.712Z,4.40
2023-01-08T09:38:31.137Z,4.50
2023-01-08T09:41:03.579Z,4.40
2023-01-08T09:43:34.529Z,4.60
2023-01-08T09:46:04.242Z,4.55
2023-01-08T09:48:36.898Z,4.20
2023-01-08T09:51:04.242Z,4.10
2023-01-08T09:53:32.904Z,4.50
2023-01-08T09:56:10.161Z,4.32
2023-01-08T09:58:40.477Z,4.20
2023-01-08T10:01:09.571Z,4.10
2023-01-08T10:04:07.345Z,3.90
2023-01-08T10:06:33.978Z,4.50
2023-01-08T10:09:00.604Z,4.18
2023-01-08T10:11:33.154Z,4.22
2023-01-08T10:13:59.601Z,4.38
2023-01-08T10:16:37.834Z,4.05
2023-01-08T10:19:04.865Z,4.20
2023-01-08T10:21:36.579Z,4.40
2023-01-08T10:24:03.163Z,4.10
2023-01-08T10:26:36.443Z,4.40
2023-01-08T10:29:13.074Z,3.92
2023-01-08T10:32:07.705Z,3.60
2023-01-08T10:34:51.103Z,4.30
2023-01-08T10:37:28.466Z,4.35
2023-01-08T10:40:06.622Z,3.38
2023-01-08T10:42:35.537Z,3.85
2023-01-08T10:45:12.203Z,3.33
2023-01-08T10:47:39.227Z,3.88
2023-01-08T10:50:19.827Z,3.50
2023-01-08T10:52:58.996Z,3.47
2023-01-08T10:55:37.350Z,3.60
2023-01-08T10:58:14.493Z,4.03
2023-01-08T11:00:41.155Z,3.50
2023-01-08T11:03:18.553Z,3.45
2023-01-08T11:05:46.316Z,3.35
2023-01-08T11:08:22.995Z,3.50
2023-01-08T11:10:54.853Z,3.80
2023-01-08T11:13:21.837Z,4.13
2023-01-08T11:16:04.894Z,3.70
2023-01-08T11:18:35.420Z,3.83
2023-01-08T11:21:10.586Z,3.60
2023-01-08T11:23:37.046Z,3.47
2023-01-08T11:26:11.367Z,3.15
2023-01-08T11:28:47.983Z,3.90
2023-01-08T11:31:41.498Z,3.70
2023-01-08T11:34:32.748Z,3.30
2023-01-08T11:37:14.711Z,3.40
2023-01-08T11:39:41.245Z,2.97
2023-01-08T11:42:46.026Z,3.42
2023-01-08T11:45:28.212Z,3.03
2023-01-08T11:48:15.916Z,2.78
2023-01-08T11:51:03.629Z,3.22
2023-01-08T11:53:48.860Z,2.85
2023-01-08T11:56:27.877Z,3.05
2023-01-08T11:59:09.469Z,2.65
2023-01-08T12:02:07.560Z,3.17
2023-01-08T12:05:18.862Z,3.20
2023-01-08T12:08:16.138Z,2.95
2023-01-08T12:11:05.776Z,2.92
2023-01-08T12:13:44.061Z,2.88
2023-01-08T12:16:38.970Z,2.90
2023-01-08T12:19:22.958Z,2.75
2023-01-08T12:22:11.397Z,3.00
2023-01-08T12:25:46.910Z,3.28
2023-01-08T12:28:48.261Z,2.88
2023-01-08T12:32:02.926Z,3.13
2023-01-08T12:34:41.928Z,2.80
2023-01-08T12:37:37.746Z,3.03
2023-01-08T12:40:17.506Z,2.58
2023-01-08T12:42:50.236Z,2.90
2023-01-08T12:45:28.379Z,2.72
2023-01-08T12:48:03.704Z,2.88
2023-01-08T12:50:40.337Z,2.58
2023-01-08T12:53:26.743Z,2.53
2023-01-08T12:56:08.018Z,3.00
2023-01-08T12:58:43.682Z,2.55
2023-01-08T13:01:16.005Z,2.50
2023-01-08T13:03:44.030Z,2.60
2023-01-08T13:06:16.879Z,2.38
2023-01-08T13:08:50.860Z,2.50
2023-01-08T13:11:26.128Z,2.55
2023-01-08T13:14:00.474Z,2.40
2023-01-08T13:16:27.040Z,2.63
2023-01-08T13:18:56.288Z,2.40
2023-01-08T13:21:43.306Z,2.60
2023-01-08T13:24:33.057Z,2.40
2023-01-08T13:27:14.468Z,2.40
2023-01-08T13:29:46.330Z,2.55
2023-01-08T13:32:34.762Z,2.50
2023-01-08T13:35:17.061Z,2.40
2023-01-08T13:37:45.033Z,2.38
2023-01-08T13:40:53.333Z,2.45
2023-01-08T13:43:44.871Z,2.70
2023-01-08T13:46:19.990Z,2.40
2023-01-08T13:48:53.285Z,2.55
2023-01-08T13:51:27.747Z,2.45
2023-01-08T13:53:54.262Z,2.30
2023-01-08T13:56:21.294Z,2.60
2023-01-08T13:58:54.262Z,2.83
2023-01-08T14:01:22.479Z,2.28
2023-01-08T14:03:50.159Z,2.40
2023-01-08T14:06:22.987Z,2.00
2023-01-08T14:08:53.814Z,1.95
2023-01-08T14:11:22.612Z,2.05
2023-01-08T14:13:49.828Z,2.22
2023-01-08T14:16:17.516Z,2.67
2023-01-08T14:18:46.077Z,2.42
2023-01-08T14:21:14.459Z,2.40
2023-01-08T14:23:46.510Z,2.35
2023-01-08T14:26:36.733Z,2.50
2023-01-08T14:29:12.030Z,2.60
2023-01-08T14:31:50.140Z,2.85
2023-01-08T14:34:17.688Z,3.00
2023-01-08T14:36:44.669Z,2.60
2023-01-08T14:39:40.768Z,2.55
2023-01-08T14:42:46.030Z,2.58
2023-01-08T14:45:24.308Z,2.50
2023-01-08T14:47:54.040Z,2.60
2023-01-08T14:50:42.602Z,2.50
2023-01-08T14:53:35.334Z,2.70
2023-01-08T14:56:03.772Z,2.78
2023-01-08T14:58:36.714Z,2.70
2023-01-08T15:01:07.474Z,2.78
2023-01-08T15:03:37.255Z,2.30
2023-01-08T15:06:04.964Z,3.20
2023-01-08T15:08:35.770Z,3.03
2023-01-08T15:11:18.938Z,5.00
2023-01-08T15:13:47.707Z,5.68
2023-01-08T15:16:23.321Z,5.05
2023-01-08T15:19:07.599Z,5.55
2023-01-08T15:21:35.531Z,4.47
2023-01-08T15:24:03.716Z,4.03
2023-01-08T15:26:30.699Z,4.07
2023-01-08T15:28:58.437Z,4.32
2023-01-08T15:31:28.957Z,4.00
2023-01-08T15:33:56.237Z,3.28
2023-01-08T15:36:22.759Z,3.13
2023-01-08T15:38:50.099Z,3.80
2023-01-08T15:41:38.051Z,3.20
2023-01-08T15:44:05.215Z,3.65
2023-01-08T15:46:31.750Z,3.30
2023-01-08T15:48:58.237Z,3.78
2023-01-08T15:51:25.782Z,3.83
2023-01-08T15:53:52.237Z,4.93
2023-01-08T15:56:18.660Z,4.95
2023-01-08T15:58:45.099Z,5.53
2023-01-08T16:01:11.553Z,5.25
2023-01-08T16:03:38.054Z,4.28
2023-01-08T16:06:08.127Z,4.00
2023-01-08T16:08:34.808Z,3.47
2023-01-08T16:11:01.194Z,4.28
2023-01-08T16:13:27.681Z,3.95
2023-01-08T16:15:55.296Z,3.05
2023-01-08T16:18:21.714Z,3.17
2023-01-08T16:20:48.221Z,3.22
2023-01-08T16:23:14.668Z,3.28
2023-01-08T16:25:41.230Z,3.38
2023-01-08T16:28:07.718Z,3.05
2023-01-08T16:30:34.522Z,2.85
2023-01-08T16:33:00.921Z,3.03
2023-01-08T16:35:27.463Z,2.90
2023-01-08T16:37:53.948Z,2.70
2023-01-08T16:40:20.541Z,3.17
2023-01-08T16:42:47.015Z,2.90
2023-01-08T16:45:13.515Z,2.90
2023-01-08T16:47:40.004Z,2.78
2023-01-08T16:50:07.586Z,2.83
2023-01-08T16:52:34.107Z,10.85
2023-01-08T16:55:00.592Z,4.10
2023-01-08T16:57:27.065Z,4.90
2023-01-08T16:59:53.490Z,4.05
2023-01-08T17:02:19.931Z,3.83
2023-01-08T17:04:46.412Z,4.05
2023-01-08T17:07:13.414Z,4.28
2023-01-08T17:09:39.863Z,3.70
2023-01-08T17:12:06.935Z,3.65
2023-01-08T17:14:35.384Z,3.35
2023-01-08T17:17:02.086Z,3.83
2023-01-08T17:19:28.497Z,3.22
2023-01-08T17:21:54.955Z,3.25
2023-01-08T17:24:21.375Z,3.42
2023-01-08T17:26:47.798Z,3.30
2023-01-08T17:29:14.310Z,3.03
2023-01-08T17:31:40.828Z,3.20
2023-01-08T17:34:12.000Z,3.00
2023-01-08T17:36:38.573Z,3.25
2023-01-08T17:39:05.296Z,3.42
2023-01-08T17:41:50.120Z,3.40
2023-01-08T17:44:16.675Z,3.35
2023-01-08T17:46:45.023Z,3.25
2023-01-08T17:49:14.008Z,3.38
2023-01-08T17:51:42.057Z,3.92
2023-01-08T17:54:15.429Z,4.70
2023-01-08T17:56:42.355Z,7.93
2023-01-08T17:59:13.410Z,6.68
2023-01-08T18:01:40.167Z,6.20
2023-01-08T18:04:06.595Z,7.07
2023-01-08T18:06:33.131Z,6.68
2023-01-08T18:09:00.136Z,5.93
2023-01-08T18:11:27.324Z,4.63
2023-01-08T18:13:58.449Z,5.22
2023-01-08T18:16:25.897Z,4.70
2023-01-08T18:18:52.675Z,4.32
2023-01-08T18:21:19.687Z,4.28
2023-01-08T18:23:49.131Z,3.78
2023-01-08T18:26:17.530Z,3.22
2023-01-08T18:28:44.135Z,3.75
2023-01-08T18:31:11.936Z,3.35
2023-01-08T18:33:39.042Z,3.65
2023-01-08T18:36:09.451Z,3.35
2023-01-08T18:38:40.663Z,3.30
2023-01-08T18:41:08.656Z,3.17
2023-01-08T18:43:36.314Z,2.70
2023-01-08T18:46:05.590Z,2.90
2023-01-08T18:48:33.096Z,2.60
2023-01-08T18:51:05.321Z,2.70
2023-01-08T18:53:33.171Z,2.15
2023-01-08T18:56:01.239Z,2.55
2023-01-08T18:58:28.035Z,2.28
2023-01-08T19:00:54.743Z,2.30
2023-01-08T19:03:21.724Z,2.33
2023-01-08T19:05:48.950Z,2.38
2023-01-08T19:08:15.484Z,2.55
2023-01-08T19:10:41.917Z,2.83
2023-01-08T19:13:08.474Z,2.33
2023-01-08T19:15:35.580Z,2.72
2023-01-08T19:18:04.650Z,2.22
2023-01-08T19:20:31.431Z,2.67
2023-01-08T19:22:57.951Z,2.55
2023-01-08T19:25:24.425Z,2.45
2023-01-08T19:27:50.921Z,2.13
2023-01-08T19:30:17.482Z,2.67
2023-01-08T19:32:45.794Z,2.70
2023-01-08T19:35:12.330Z,2.28
2023-01-08T19:37:38.736Z,2.55
2023-01-08T19:40:06.250Z,2.42
2023-01-08T19:42:52.878Z,2.83
2023-01-08T19:45:19.568Z,3.38
2023-01-08T19:47:46.041Z,3.25
2023-01-08T19:50:12.483Z,3.03
2023-01-08T19:52:38.950Z,4.07
2023-01-08T19:55:05.888Z,5.25
2023-01-08T19:57:32.443Z,6.40
2023-01-08T19:59:58.945Z,7.10
2023-01-08T20:02:25.528Z,7.82
2023-01-08T20:04:52.177Z,6.57
2023-01-08T20:07:19.291Z,6.65
2023-01-08T20:09:45.811Z,6.05
2023-01-08T20:12:13.799Z,5.40
2023-01-08T20:14:40.363Z,5.47
2023-01-08T20:17:06.958Z,5.50
2023-01-08T20:19:34.319Z,5.20
2023-01-08T20:22:00.792Z,5.13
2023-01-08T20:24:28.256Z,4.88
2023-01-08T20:26:55.791Z,4.88
2023-01-08T20:29:22.571Z,4.65
2023-01-08T20:31:56.621Z,4.40
2023-01-08T20:36:49.997Z,3.70
2023-01-08T20:39:17.659Z,4.03
2023-01-08T20:41:50.361Z,3.38
2023-01-08T20:44:27.902Z,3.40
2023-01-08T20:46:54.820Z,3.30
2023-01-08T20:49:21.481Z,3.22
2023-01-08T20:51:58.188Z,3.40
2023-01-08T20:54:28.659Z,3.38
2023-01-08T20:57:00.023Z,3.38
2023-01-08T20:59:27.400Z,4.63
2023-01-08T21:01:54.481Z,5.72
2023-01-08T21:04:21.621Z,8.25
2023-01-08T21:06:48.599Z,6.43
2023-01-08T21:09:16.553Z,6.93
2023-01-08T21:11:43.196Z,6.53
2023-01-08T21:14:10.756Z,6.00
2023-01-08T21:16:40.228Z,5.22
2023-01-08T21:19:10.297Z,5.40
2023-01-08T21:21:39.988Z,5.05
2023-01-08T21:24:08.940Z,4.70
2023-01-08T21:26:39.975Z,4.82
2023-01-08T21:29:08.035Z,4.45
2023-01-08T21:31:36.154Z,3.90
2023-01-08T21:34:04.063Z,4.00
2023-01-08T21:36:31.794Z,3.55
2023-01-08T21:39:00.159Z,3.42
2023-01-08T21:41:46.869Z,3.45
2023-01-08T21:44:43.413Z,3.28
2023-01-08T21:47:12.884Z,3.00
2023-01-08T21:49:39.333Z,2.88
2023-01-08T21:52:26.232Z,2.90
2023-01-08T21:54:53.915Z,2.65
2023-01-08T21:57:21.083Z,2.90
2023-01-08T21:59:51.208Z,3.60
2023-01-08T22:02:19.867Z,3.20
2023-01-08T22:04:46.787Z,3.75
2023-01-08T22:07:13.993Z,4.43
2023-01-08T22:09:40.535Z,3.30
2023-01-08T22:12:07.813Z,4.18
2023-01-08T22:14:34.771Z,3.80
2023-01-08T22:17:03.907Z,4.18
2023-01-08T22:19:30.407Z,4.00
2023-01-08T22:21:56.872Z,4.78
2023-01-08T22:24:23.541Z,4.25
2023-01-08T22:26:50.279Z,4.45
2023-01-08T22:29:17.119Z,4.20
2023-01-08T22:31:43.576Z,3.50
2023-01-08T22:34:14.121Z,3.63
2023-01-08T22:36:40.651Z,3.08
2023-01-08T22:39:07.102Z,3.30
2023-01-08T22:41:33.510Z,3.08
2023-01-08T22:44:00.238Z,3.05
2023-01-08T22:46:26.726Z,2.88
2023-01-08T22:48:53.328Z,2.58
2023-01-08T22:51:29.419Z,2.60
2023-01-08T22:53:57.627Z,2.85
2023-01-08T22:56:24.415Z,2.63
2023-01-08T22:58:51.401Z,2.30
2023-01-08T23:01:21.596Z,2.85
2023-01-08T23:03:49.378Z,2.10
2023-01-08T23:06:17.559Z,2.15
2023-01-08T23:08:45.045Z,2.50
2023-01-08T23:11:13.771Z,2.33
2023-01-08T23:13:41.112Z,2.20
2023-01-08T23:16:09.404Z,2.90
2023-01-08T23:18:36.779Z,2.08
2023-01-08T23:21:25.099Z,2.47
2023-01-08T23:23:51.640Z,2.20
2023-01-08T23:26:24.687Z,2.33
2023-01-08T23:28:52.642Z,2.20
2023-01-08T23:31:22.861Z,2.70
2023-01-08T23:33:49.984Z,1.92
2023-01-08T23:36:21.145Z,2.15
2023-01-08T23:38:55.511Z,2.40
2023-01-08T23:41:31.437Z,2.28
2023-01-08T23:44:00.994Z,2.30
2023-01-08T23:46:28.065Z,2.53
2023-01-08T23:48:55.509Z,2.60
2023-01-08T23:51:22.886Z,2.55
2023-01-08T23:53:51.442Z,2.72
2023-01-08T23:56:20.456Z,2.30
2023-01-08T23:58:47.962Z,2.60
